Time;durP1;ratioP1;P1;durP2;ratioP2;P2;SDS_P1;SDS_P2;PMS_P1;PMS_P2;Temp;Humidity;BMP_temperature;BMP_pressure;BME280_temperature;BME280_humidity;BME280_pressure;Samples;Min_cycle;Max_cycle;Signal;HPM_P1;HPM_P2
2022/07/02 00:02:13;;;;;;;5.07;2.28;;;14.90;99.90;;;;;;5038951;28;20051;-51
2022/07/02 00:04:46;;;;;;;6.05;2.10;;;14.80;99.90;;;;;;5038940;28;20041;-56
2022/07/02 00:07:12;;;;;;;5.60;2.10;;;14.80;99.90;;;;;;5034839;28;20045;-53
2022/07/02 00:09:38;;;;;;;5.30;2.70;;;14.80;99.90;;;;;;5041001;28;20399;-52
2022/07/02 00:12:05;;;;;;;5.03;2.65;;;14.80;99.90;;;;;;5038495;28;20049;-52
2022/07/02 00:14:33;;;;;;;3.90;2.42;;;14.80;99.90;;;;;;5037463;28;20534;-51
2022/07/02 00:17:00;;;;;;;7.30;2.78;;;14.80;99.90;;;;;;5023606;28;20160;-52
2022/07/02 00:19:26;;;;;;;7.70;3.00;;;14.70;99.90;;;;;;5041611;28;20101;-52
2022/07/02 00:21:53;;;;;;;9.05;3.28;;;14.70;99.90;;;;;;5032752;28;20531;-55
2022/07/02 00:24:19;;;;;;;4.75;2.70;;;14.70;99.90;;;;;;5031846;28;20045;-55
2022/07/02 00:26:57;;;;;;;7.53;2.42;;;14.60;99.90;;;;;;5038830;28;20053;-54
2022/07/02 00:29:38;;;;;;;5.63;2.60;;;14.60;99.90;;;;;;5038754;28;20081;-53
2022/07/02 00:32:04;;;;;;;4.75;2.70;;;14.50;99.90;;;;;;5036967;28;20393;-53
2022/07/02 00:34:32;;;;;;;7.32;3.20;;;14.50;99.90;;;;;;5034329;28;20400;-55
2022/07/02 00:36:59;;;;;;;7.40;3.75;;;14.50;99.90;;;;;;5033735;28;20535;-53
2022/07/02 00:39:25;;;;;;;6.38;2.65;;;14.50;99.90;;;;;;5018567;28;20120;-54
2022/07/02 00:41:51;;;;;;;5.80;3.22;;;14.50;99.90;;;;;;5034094;28;20052;-56
2022/07/02 00:44:18;;;;;;;6.15;3.38;;;14.40;99.90;;;;;;5039324;28;20075;-56
2022/07/02 00:46:44;;;;;;;7.43;2.90;;;14.40;99.90;;;;;;5036033;28;20051;-52
2022/07/02 00:49:12;;;;;;;7.78;3.50;;;14.40;99.90;;;;;;5036045;28;20052;-49
2022/07/02 00:51:38;;;;;;;7.85;3.15;;;14.40;99.90;;;;;;5023249;28;20365;-56
2022/07/02 00:54:04;;;;;;;5.28;2.80;;;14.30;99.90;;;;;;5016717;28;20450;-55
2022/07/02 00:56:31;;;;;;;6.28;2.63;;;14.30;99.90;;;;;;5034367;28;20041;-50
2022/07/02 00:58:56;;;;;;;6.80;2.90;;;14.30;99.90;;;;;;5036834;28;20099;-53
2022/07/02 01:01:22;;;;;;;7.05;3.60;;;14.30;99.90;;;;;;5042487;28;20509;-54
2022/07/02 01:03:49;;;;;;;8.38;2.88;;;14.30;99.90;;;;;;5053265;28;20056;-51
2022/07/02 01:06:17;;;;;;;6.97;2.83;;;14.30;99.90;;;;;;5021481;28;20474;-50
2022/07/02 01:11:31;;;;;;;7.50;3.28;;;14.20;99.90;;;;;;5020046;28;20057;-55
2022/07/02 01:13:57;;;;;;;6.78;2.70;;;14.10;99.90;;;;;;5034153;28;20040;-55
2022/07/02 01:16:23;;;;;;;5.50;2.88;;;14.10;99.90;;;;;;5029851;28;20061;-55
2022/07/02 01:18:50;;;;;;;9.13;2.70;;;14.10;99.90;;;;;;5036736;28;20032;-50
2022/07/02 01:21:15;;;;;;;4.53;2.63;;;14.10;99.90;;;;;;5035453;28;20052;-52
2022/07/02 01:23:41;;;;;;;7.45;2.58;;;14.10;99.90;;;;;;5041470;28;20040;-51
2022/07/02 01:26:07;;;;;;;4.22;2.50;;;14.10;99.90;;;;;;5024911;28;20071;-49
2022/07/02 01:28:32;;;;;;;6.07;2.53;;;14.10;99.90;;;;;;5032661;28;20049;-53
2022/07/02 01:30:58;;;;;;;5.57;2.20;;;14.10;99.90;;;;;;5030235;28;22594;-50
2022/07/02 01:33:24;;;;;;;5.68;2.42;;;14.00;99.90;;;;;;5034410;28;20411;-55
2022/07/02 01:35:50;;;;;;;4.57;2.78;;;14.10;99.90;;;;;;5037429;28;20064;-52
2022/07/02 01:38:15;;;;;;;8.38;2.60;;;14.10;99.90;;;;;;5033400;28;20055;-51
2022/07/02 01:40:41;;;;;;;6.32;3.05;;;14.10;99.90;;;;;;5032114;28;20037;-50
2022/07/02 01:43:07;;;;;;;6.38;2.30;;;14.10;99.90;;;;;;5030020;28;20480;-54
2022/07/02 01:45:33;;;;;;;7.97;2.45;;;14.00;99.90;;;;;;5027138;28;20045;-50
2022/07/02 01:47:58;;;;;;;4.88;2.58;;;14.00;99.90;;;;;;5035802;28;20554;-51
2022/07/02 01:50:24;;;;;;;6.45;2.30;;;13.90;99.90;;;;;;5044429;28;20076;-51
2022/07/02 01:52:51;;;;;;;7.07;2.72;;;14.00;99.90;;;;;;5038622;28;20042;-56
2022/07/02 01:55:17;;;;;;;8.80;2.92;;;13.90;99.90;;;;;;5035355;28;20041;-52
2022/07/02 01:57:43;;;;;;;3.08;2.20;;;13.90;99.90;;;;;;5034412;28;20219;-51
2022/07/02 02:00:11;;;;;;;6.10;2.72;;;14.00;99.90;;;;;;5036770;28;20179;-53
2022/07/02 02:02:38;;;;;;;5.53;2.70;;;14.00;99.90;;;;;;5038073;28;20561;-49
2022/07/02 02:05:04;;;;;;;7.97;3.70;;;13.90;99.90;;;;;;5038119;28;20036;-54
2022/07/02 02:07:31;;;;;;;7.90;3.20;;;13.90;99.90;;;;;;5034115;28;20033;-54
2022/07/02 02:09:56;;;;;;;9.45;3.10;;;13.90;99.90;;;;;;5035788;28;20102;-55
2022/07/02 02:12:22;;;;;;;7.43;2.90;;;13.90;99.90;;;;;;5023495;28;20041;-51
2022/07/02 02:14:48;;;;;;;7.63;3.10;;;13.90;99.90;;;;;;5040319;28;20059;-56
2022/07/02 02:17:14;;;;;;;10.65;2.90;;;13.90;99.90;;;;;;5036247;28;20479;-50
2022/07/02 02:19:40;;;;;;;9.63;3.65;;;13.90;99.90;;;;;;5023607;28;20113;-50
2022/07/02 02:22:06;;;;;;;6.53;2.92;;;13.90;99.90;;;;;;5023393;28;20052;-51
2022/07/02 02:24:31;;;;;;;6.85;3.28;;;13.90;99.90;;;;;;5038636;28;20066;-54
2022/07/02 02:26:58;;;;;;;7.68;3.13;;;13.80;99.90;;;;;;5024449;28;20183;-54
2022/07/02 02:29:24;;;;;;;6.75;2.97;;;13.80;99.90;;;;;;5055769;28;20649;-52
2022/07/02 02:31:50;;;;;;;6.45;3.30;;;13.70;99.90;;;;;;5042664;28;20041;-49
2022/07/02 02:34:16;;;;;;;5.60;2.92;;;13.70;99.90;;;;;;5026477;28;20106;-51
2022/07/02 02:36:41;;;;;;;6.75;3.22;;;13.70;99.90;;;;;;5017520;28;20450;-52
2022/07/02 02:39:07;;;;;;;9.82;4.38;;;13.70;99.90;;;;;;5041679;28;20053;-52
2022/07/02 02:41:33;;;;;;;6.47;3.83;;;13.80;99.90;;;;;;5038299;28;20075;-54
2022/07/02 02:43:59;;;;;;;7.22;4.13;;;13.70;99.90;;;;;;5032989;28;20624;-55
2022/07/02 02:46:24;;;;;;;6.45;3.42;;;13.60;99.90;;;;;;5038057;28;20457;-54
2022/07/02 02:48:50;;;;;;;7.35;3.78;;;13.60;99.90;;;;;;5037401;28;20076;-51
2022/07/02 02:51:16;;;;;;;15.00;4.05;;;13.60;99.90;;;;;;5044176;28;20079;-52
2022/07/02 02:53:43;;;;;;;6.70;3.88;;;13.60;99.90;;;;;;5043336;28;20045;-51
2022/07/02 02:56:09;;;;;;;7.35;3.88;;;13.60;99.90;;;;;;5042814;28;20238;-49
2022/07/02 02:58:35;;;;;;;11.88;4.05;;;13.50;99.90;;;;;;5038732;28;20048;-54
2022/07/02 03:01:01;;;;;;;7.28;4.15;;;13.50;99.90;;;;;;5037145;28;20036;-49
2022/07/02 03:03:27;;;;;;;7.75;4.25;;;13.50;99.90;;;;;;5045345;28;20045;-52
2022/07/02 03:05:53;;;;;;;8.00;4.40;;;13.50;99.90;;;;;;5020550;28;20041;-52
2022/07/02 03:08:19;;;;;;;10.63;4.05;;;13.50;99.90;;;;;;5043876;28;20057;-53
2022/07/02 03:10:45;;;;;;;9.90;4.07;;;13.50;99.90;;;;;;5040116;28;20048;-56
2022/07/02 03:13:11;;;;;;;9.73;3.63;;;13.50;99.90;;;;;;5043444;28;20041;-51
2022/07/02 03:15:37;;;;;;;7.70;4.38;;;13.60;99.90;;;;;;5042427;28;20526;-51
2022/07/02 03:18:03;;;;;;;9.15;4.13;;;13.60;99.90;;;;;;5040839;28;20039;-51
2022/07/02 03:20:31;;;;;;;6.80;3.72;;;13.30;99.90;;;;;;5041300;28;20054;-51
2022/07/02 03:22:56;;;;;;;6.05;3.78;;;13.50;99.90;;;;;;5036428;28;20068;-54
2022/07/02 03:25:22;;;;;;;13.25;5.88;;;13.50;99.90;;;;;;5039857;28;20080;-49
2022/07/02 03:27:48;;;;;;;6.20;3.60;;;13.50;99.90;;;;;;5040231;28;20306;-54
2022/07/02 03:30:14;;;;;;;9.45;4.30;;;13.50;99.90;;;;;;5042325;28;20102;-50
2022/07/02 03:32:39;;;;;;;6.97;4.32;;;13.60;99.90;;;;;;5040280;28;20067;-54
2022/07/02 03:35:05;;;;;;;10.05;4.13;;;13.50;99.90;;;;;;5043859;28;20047;-52
2022/07/02 03:37:31;;;;;;;9.38;5.53;;;13.50;99.90;;;;;;5045938;28;20048;-53
2022/07/02 03:39:57;;;;;;;10.43;4.95;;;13.50;99.90;;;;;;5038686;28;20446;-49
2022/07/02 03:42:23;;;;;;;9.10;4.88;;;13.50;99.90;;;;;;5041133;28;20037;-52
2022/07/02 03:44:49;;;;;;;10.52;5.50;;;13.60;99.90;;;;;;5052932;28;20451;-52
2022/07/02 03:47:15;;;;;;;9.82;5.53;;;13.60;99.90;;;;;;5045265;28;20064;-50
2022/07/02 03:49:40;;;;;;;9.27;5.80;;;13.60;99.90;;;;;;5045347;28;20041;-52
2022/07/02 03:52:06;;;;;;;12.45;5.80;;;13.60;99.90;;;;;;5045582;28;20045;-52
2022/07/02 03:54:32;;;;;;;12.32;6.40;;;13.60;99.90;;;;;;5042018;28;20119;-54
2022/07/02 03:56:58;;;;;;;11.90;5.50;;;13.70;99.90;;;;;;5044591;28;20036;-54
2022/07/02 03:59:24;;;;;;;11.65;6.85;;;13.60;99.90;;;;;;5042113;28;20037;-54
2022/07/02 04:01:50;;;;;;;9.23;5.07;;;13.60;99.90;;;;;;5020801;28;20396;-52
2022/07/02 04:04:16;;;;;;;9.40;6.18;;;13.60;99.90;;;;;;5019915;28;20053;-53
2022/07/02 04:06:42;;;;;;;13.80;6.28;;;13.60;99.90;;;;;;5025692;28;20083;-54
2022/07/02 04:09:07;;;;;;;8.63;5.25;;;13.60;99.90;;;;;;5045014;28;20081;-52
2022/07/02 04:11:33;;;;;;;11.88;7.18;;;13.60;99.90;;;;;;5039802;28;20656;-51
2022/07/02 04:13:59;;;;;;;12.95;6.25;;;13.60;99.90;;;;;;5045689;28;20279;-51
2022/07/02 04:16:25;;;;;;;10.57;5.63;;;13.60;99.90;;;;;;5039559;28;20033;-58
2022/07/02 04:18:50;;;;;;;11.10;6.03;;;13.60;99.90;;;;;;5025139;28;20079;-53
2022/07/02 04:21:16;;;;;;;12.27;7.10;;;13.60;99.90;;;;;;5046855;28;20033;-50
2022/07/02 04:23:42;;;;;;;9.02;6.28;;;13.60;99.90;;;;;;5040839;28;20559;-51
2022/07/02 04:26:08;;;;;;;8.65;5.45;;;13.70;99.90;;;;;;5040253;28;20041;-52
2022/07/02 04:28:33;;;;;;;10.68;7.45;;;13.70;99.90;;;;;;5041055;28;20048;-53
2022/07/02 04:30:59;;;;;;;11.98;6.80;;;13.70;99.90;;;;;;5042417;28;20048;-56
2022/07/02 04:33:25;;;;;;;12.75;6.53;;;13.70;99.90;;;;;;5047947;28;20052;-52
2022/07/02 04:35:50;;;;;;;9.95;6.00;;;13.80;99.90;;;;;;5039927;28;20513;-52
2022/07/02 04:38:17;;;;;;;11.48;6.57;;;13.80;99.90;;;;;;5036814;28;20090;-50
2022/07/02 04:40:43;;;;;;;9.43;5.60;;;13.80;99.90;;;;;;5032497;28;20033;-50
2022/07/02 04:43:09;;;;;;;13.45;5.55;;;13.90;99.90;;;;;;5032999;28;20058;-55
2022/07/02 04:45:34;;;;;;;10.70;5.88;;;13.90;99.90;;;;;;5037876;28;20040;-50
2022/07/02 04:48:00;;;;;;;10.15;5.82;;;13.90;99.90;;;;;;5043260;28;20131;-54
2022/07/02 04:50:26;;;;;;;9.30;6.30;;;13.90;99.90;;;;;;5038264;28;20102;-53
2022/07/02 04:52:51;;;;;;;7.97;5.20;;;14.00;99.90;;;;;;5047455;28;20040;-51
2022/07/02 04:55:17;;;;;;;11.75;5.53;;;14.10;99.90;;;;;;5037135;28;20051;-52
2022/07/02 04:57:43;;;;;;;10.48;5.93;;;14.10;99.90;;;;;;5045042;28;20044;-52
2022/07/02 05:00:09;;;;;;;14.25;7.22;;;14.20;99.90;;;;;;5036821;23;20170;-60
2022/07/02 05:02:35;;;;;;;13.95;6.00;;;14.20;99.90;;;;;;5020647;28;20072;-59
2022/07/02 05:05:02;;;;;;;10.95;6.47;;;14.30;99.90;;;;;;5012622;28;20041;-60
2022/07/02 05:07:28;;;;;;;9.82;4.97;;;14.30;99.90;;;;;;5035575;28;20049;-60
2022/07/02 05:09:53;;;;;;;9.77;4.85;;;14.40;99.90;;;;;;5020342;28;20041;-61
2022/07/02 05:12:19;;;;;;;10.57;5.53;;;14.50;99.90;;;;;;5019095;28;20132;-60
2022/07/02 05:14:45;;;;;;;9.15;5.05;;;14.60;99.90;;;;;;5011842;28;20029;-60
2022/07/02 05:17:11;;;;;;;8.68;4.97;;;14.60;99.90;;;;;;5018446;28;20411;-59
2022/07/02 05:19:36;;;;;;;12.60;5.38;;;14.70;99.90;;;;;;5027491;28;20030;-59
2022/07/02 05:22:03;;;;;;;10.02;5.45;;;14.80;99.90;;;;;;5018120;28;20044;-60
2022/07/02 05:24:28;;;;;;;9.30;5.38;;;14.90;99.90;;;;;;5031445;28;20605;-60
2022/07/02 05:26:54;;;;;;;11.52;5.82;;;15.00;99.90;;;;;;5018990;28;20033;-60
2022/07/02 05:29:20;;;;;;;8.82;5.57;;;15.10;99.90;;;;;;5012027;28;20041;-59
2022/07/02 05:31:45;;;;;;;13.00;5.70;;;15.20;99.90;;;;;;5016981;28;20125;-60
2022/07/02 05:34:11;;;;;;;12.07;5.13;;;15.30;99.90;;;;;;5018905;28;20038;-58
2022/07/02 05:36:37;;;;;;;11.50;5.55;;;15.40;99.90;;;;;;5008745;28;20040;-59
2022/07/02 05:39:03;;;;;;;12.52;5.97;;;15.40;99.90;;;;;;5019247;28;20053;-60
2022/07/02 05:41:29;;;;;;;10.48;5.10;;;15.50;99.90;;;;;;5021943;28;20041;-57
2022/07/02 05:43:54;;;;;;;13.60;5.68;;;15.60;99.90;;;;;;5011652;28;20037;-59
2022/07/02 05:46:20;;;;;;;13.05;5.80;;;15.70;99.90;;;;;;5009184;28;20103;-61
2022/07/02 05:48:46;;;;;;;11.00;6.10;;;15.80;99.90;;;;;;5020122;28;20102;-59
2022/07/02 05:51:11;;;;;;;7.55;5.70;;;15.90;99.90;;;;;;5026069;28;20439;-58
2022/07/02 05:53:37;;;;;;;8.60;5.55;;;15.90;99.90;;;;;;5019259;28;20454;-56
2022/07/02 05:56:03;;;;;;;10.70;5.82;;;16.00;99.90;;;;;;5023465;28;20105;-60
2022/07/02 05:58:28;;;;;;;8.57;6.07;;;16.20;99.90;;;;;;5024878;28;20036;-59
2022/07/02 06:00:54;;;;;;;11.23;5.72;;;16.30;99.90;;;;;;5013897;28;20080;-60
2022/07/02 06:03:20;;;;;;;17.73;5.10;;;16.30;99.90;;;;;;5011449;28;20155;-60
2022/07/02 06:08:30;;;;;;;9.43;5.47;;;16.50;99.90;;;;;;5035627;28;20127;-60
2022/07/02 06:10:56;;;;;;;9.05;4.90;;;16.60;99.90;;;;;;5009970;28;20037;-59
2022/07/02 06:13:22;;;;;;;9.07;5.20;;;16.60;99.90;;;;;;5001333;28;20402;-58
2022/07/02 06:15:48;;;;;;;15.25;4.72;;;16.70;99.90;;;;;;5019969;28;20048;-59
2022/07/02 06:18:13;;;;;;;9.30;4.70;;;16.80;99.90;;;;;;5011932;28;20046;-59
2022/07/02 06:20:39;;;;;;;14.43;5.57;;;16.80;99.90;;;;;;5015991;28;20288;-57
2022/07/02 06:23:05;;;;;;;10.40;5.32;;;17.00;99.90;;;;;;5008970;28;20080;-59
2022/07/02 06:25:31;;;;;;;9.32;5.00;;;17.00;99.90;;;;;;5013862;28;20411;-60
2022/07/02 06:27:57;;;;;;;9.68;5.22;;;17.10;99.90;;;;;;5007055;28;20111;-59
2022/07/02 06:30:23;;;;;;;11.23;5.03;;;17.10;99.90;;;;;;5023243;28;20310;-58
2022/07/02 06:32:49;;;;;;;8.05;4.07;;;17.20;99.90;;;;;;5003740;28;20092;-60
2022/07/02 06:35:15;;;;;;;9.63;4.35;;;17.30;99.90;;;;;;4998896;28;20129;-60
2022/07/02 06:37:41;;;;;;;9.88;4.35;;;17.40;99.90;;;;;;5010823;28;20033;-61
2022/07/02 06:40:07;;;;;;;9.40;4.03;;;17.50;99.90;;;;;;5010160;28;20048;-61
2022/07/02 06:42:33;;;;;;;7.10;4.00;;;17.60;99.90;;;;;;5006461;28;20127;-61
2022/07/02 06:44:59;;;;;;;8.15;4.40;;;17.70;99.90;;;;;;5007957;28;20124;-60
2022/07/02 06:47:27;;;;;;;7.97;3.78;;;17.70;99.90;;;;;;5012162;28;20053;-60
2022/07/02 06:49:57;;;;;;;6.70;3.90;;;17.90;99.90;;;;;;5014360;28;20053;-61
2022/07/02 06:52:23;;;;;;;11.73;4.50;;;18.00;99.90;;;;;;5009400;28;20042;-60
2022/07/02 06:54:48;;;;;;;6.40;4.00;;;18.00;99.90;;;;;;5008046;28;20076;-61
2022/07/02 06:57:14;;;;;;;8.73;4.43;;;18.10;99.90;;;;;;5015175;28;20361;-61
2022/07/02 06:59:40;;;;;;;8.05;3.40;;;18.20;99.90;;;;;;5017834;28;20033;-59
2022/07/02 07:02:06;;;;;;;8.75;2.60;;;18.20;99.90;;;;;;5009369;28;20073;-60
2022/07/02 07:04:34;;;;;;;7.82;2.22;;;18.20;99.90;;;;;;5015287;28;20029;-61
2022/07/02 07:07:03;;;;;;;6.47;1.60;;;18.00;99.90;;;;;;5010043;28;20033;-61
2022/07/02 07:09:29;;;;;;;6.65;2.45;;;17.90;99.90;;;;;;5017347;28;20045;-62
2022/07/02 07:11:56;;;;;;;9.38;1.80;;;17.80;99.90;;;;;;5006989;28;20213;-62
2022/07/02 07:14:22;;;;;;;7.60;1.83;;;17.80;99.90;;;;;;4995974;28;20072;-62
2022/07/02 07:16:48;;;;;;;10.20;1.70;;;17.90;99.90;;;;;;5014485;28;20070;-62
2022/07/02 07:19:14;;;;;;;6.63;2.22;;;18.00;99.90;;;;;;5004174;28;20183;-62
2022/07/02 07:21:41;;;;;;;6.70;1.77;;;18.10;99.90;;;;;;4995365;28;20475;-61
2022/07/02 07:24:08;;;;;;;8.75;1.63;;;18.10;99.90;;;;;;4995497;28;20147;-61
2022/07/02 07:26:35;;;;;;;6.05;1.83;;;18.20;99.90;;;;;;5008134;28;20111;-61
2022/07/02 07:29:01;;;;;;;3.72;1.45;;;18.20;99.90;;;;;;5003832;28;20132;-61
2022/07/02 07:31:28;;;;;;;8.60;1.80;;;18.20;99.90;;;;;;5007825;28;20044;-62
2022/07/02 07:33:55;;;;;;;5.90;1.35;;;18.10;99.90;;;;;;4990267;28;20400;-61
2022/07/02 07:36:22;;;;;;;7.75;1.50;;;18.20;99.90;;;;;;4991830;28;20053;-61
2022/07/02 07:38:49;;;;;;;9.02;1.65;;;18.30;99.90;;;;;;4999989;28;20042;-60
2022/07/02 07:41:16;;;;;;;3.85;1.70;;;18.50;99.90;;;;;;5002009;28;20045;-61
2022/07/02 07:43:42;;;;;;;6.05;1.83;;;18.60;99.90;;;;;;4985402;28;20056;-61
2022/07/02 07:46:08;;;;;;;6.78;1.58;;;18.70;99.90;;;;;;4999180;28;20056;-63
2022/07/02 07:48:34;;;;;;;5.30;1.52;;;19.30;99.90;;;;;;5000601;28;20052;-60
2022/07/02 07:51:00;;;;;;;9.73;1.90;;;18.80;99.90;;;;;;5007285;28;20041;-62
2022/07/02 07:53:26;;;;;;;7.47;1.52;;;18.70;99.90;;;;;;5003708;28;20045;-62
2022/07/02 07:55:53;;;;;;;4.10;1.52;;;18.60;99.90;;;;;;5018064;28;20041;-62
2022/07/02 07:58:19;;;;;;;6.07;1.50;;;18.60;99.90;;;;;;5015585;28;20438;-62
2022/07/02 08:00:46;;;;;;;5.40;1.50;;;18.80;99.90;;;;;;5011475;28;20037;-61
2022/07/02 08:03:14;;;;;;;3.70;1.27;;;18.90;99.90;;;;;;5001983;28;20046;-63
2022/07/02 08:05:40;;;;;;;3.08;0.98;;;18.90;99.90;;;;;;5001683;28;20058;-62
2022/07/02 08:08:07;;;;;;;4.97;1.35;;;19.00;99.90;;;;;;4993232;28;20045;-62
2022/07/02 08:10:33;;;;;;;3.45;1.10;;;19.00;99.90;;;;;;4985440;28;20449;-62
2022/07/02 08:12:59;;;;;;;5.53;1.40;;;18.90;99.90;;;;;;4998926;28;20412;-62
2022/07/02 08:15:28;;;;;;;5.50;1.40;;;18.90;99.90;;;;;;5005922;28;20045;-62
2022/07/02 08:17:54;;;;;;;4.57;1.50;;;19.00;99.90;;;;;;5006403;28;20045;-63
2022/07/02 08:20:20;;;;;;;4.10;1.27;;;19.10;99.90;;;;;;4995503;28;20046;-61
2022/07/02 08:22:46;;;;;;;4.63;1.10;;;19.30;99.90;;;;;;5005541;28;20091;-62
2022/07/02 08:25:14;;;;;;;5.35;1.20;;;19.30;99.90;;;;;;5023138;28;20129;-61
2022/07/02 08:27:43;;;;;;;5.30;1.77;;;19.50;99.90;;;;;;5004729;28;20041;-62
2022/07/02 08:30:09;;;;;;;6.10;1.30;;;19.60;99.90;;;;;;4992452;28;20050;-63
2022/07/02 08:32:36;;;;;;;5.00;1.40;;;19.80;99.90;;;;;;5000001;28;20387;-62
2022/07/02 08:35:02;;;;;;;4.72;1.20;;;19.90;99.90;;;;;;5009273;28;20030;-62
2022/07/02 08:37:28;;;;;;;2.75;1.35;;;20.00;99.90;;;;;;5024332;28;20041;-61
2022/07/02 08:39:54;;;;;;;5.40;1.38;;;20.10;99.90;;;;;;4980969;28;20044;-62
2022/07/02 08:42:41;;;;;;;5.80;1.45;;;20.20;99.90;;;;;;4997562;28;20046;-62
2022/07/02 08:45:09;;;;;;;6.22;1.45;;;20.30;99.90;;;;;;5020490;28;20555;-63
2022/07/02 08:47:36;;;;;;;5.45;1.40;;;20.30;99.90;;;;;;4994888;28;20038;-62
2022/07/02 08:50:02;;;;;;;2.92;1.05;;;20.40;99.90;;;;;;5009299;28;20045;-62
2022/07/02 08:52:28;;;;;;;3.90;1.08;;;20.40;99.90;;;;;;4996214;28;20346;-61
2022/07/02 08:54:55;;;;;;;3.42;1.27;;;20.60;99.90;;;;;;5025889;28;20126;-61
2022/07/02 08:57:27;;;;;;;3.13;1.60;;;20.70;99.90;;;;;;5009793;28;20029;-62
2022/07/02 08:59:53;;;;;;;5.22;1.65;;;20.90;99.90;;;;;;4999948;28;20039;-63
2022/07/02 09:02:19;;;;;;;3.25;1.08;;;20.80;99.90;;;;;;4995670;28;20049;-63
2022/07/02 09:04:47;;;;;;;4.00;1.20;;;20.70;99.80;;;;;;5000687;28;20050;-61
2022/07/02 09:07:15;;;;;;;5.10;1.60;;;20.90;99.10;;;;;;5001900;28;20041;-62
2022/07/02 09:09:42;;;;;;;3.67;1.30;;;20.70;99.70;;;;;;4990864;28;20056;-62
2022/07/02 09:12:09;;;;;;;3.47;1.40;;;20.90;99.80;;;;;;5007750;28;20084;-62
2022/07/02 09:14:37;;;;;;;3.13;0.90;;;21.10;99.80;;;;;;4996519;28;20045;-62
2022/07/02 09:17:06;;;;;;;4.70;1.10;;;20.90;99.00;;;;;;5005322;28;20127;-62
2022/07/02 09:19:33;;;;;;;5.25;1.30;;;20.90;99.30;;;;;;4991440;28;20053;-62
2022/07/02 09:21:59;;;;;;;3.33;1.20;;;21.00;99.10;;;;;;4995260;28;20045;-62
2022/07/02 09:24:43;;;;;;;5.68;1.63;;;21.00;99.10;;;;;;4970233;28;20100;-64
2022/07/02 09:27:14;;;;;;;4.13;1.20;;;21.20;98.70;;;;;;4978135;28;20041;-62
2022/07/02 09:29:48;;;;;;;4.22;1.20;;;21.10;99.00;;;;;;4978020;28;21058;-63
2022/07/02 09:32:16;;;;;;;2.28;1.15;;;21.20;99.00;;;;;;4972875;28;20076;-63
2022/07/02 09:34:44;;;;;;;3.47;1.25;;;21.30;98.90;;;;;;5007477;28;20049;-62
2022/07/02 09:37:18;;;;;;;4.22;1.40;;;21.40;98.30;;;;;;5004217;28;20128;-60
2022/07/02 09:39:45;;;;;;;4.93;1.10;;;21.50;98.40;;;;;;5019479;28;20056;-63
2022/07/02 09:42:11;;;;;;;2.65;1.20;;;21.60;98.10;;;;;;5008896;28;21261;-63
2022/07/02 09:44:47;;;;;;;3.03;1.02;;;21.60;97.80;;;;;;4987451;28;20034;-63
2022/07/02 09:47:13;;;;;;;4.88;1.00;;;21.60;97.10;;;;;;4982652;28;20177;-62
2022/07/02 09:49:49;;;;;;;5.70;1.10;;;21.50;97.20;;;;;;4981867;28;20077;-63
2022/07/02 09:52:16;;;;;;;2.67;1.00;;;21.60;97.20;;;;;;5010639;28;20144;-61
2022/07/02 09:54:43;;;;;;;4.53;1.23;;;21.70;96.90;;;;;;4992423;28;20447;-63
2022/07/02 09:57:11;;;;;;;3.60;0.98;;;21.70;96.20;;;;;;4982166;28;20463;-62
2022/07/02 09:59:37;;;;;;;4.05;0.80;;;21.70;96.30;;;;;;4996621;28;20634;-64
2022/07/02 10:02:04;;;;;;;2.08;0.93;;;21.80;96.20;;;;;;4992811;28;20033;-62
2022/07/02 10:04:33;;;;;;;2.17;0.90;;;21.90;96.20;;;;;;5025680;28;20118;-63
2022/07/02 10:07:00;;;;;;;4.05;0.88;;;21.90;95.40;;;;;;5028026;28;20315;-64
2022/07/02 10:09:27;;;;;;;3.78;1.30;;;22.10;96.00;;;;;;4983828;28;20159;-63
2022/07/02 10:11:54;;;;;;;5.07;1.30;;;22.30;95.50;;;;;;4984869;28;20080;-63
2022/07/02 10:14:23;;;;;;;5.97;1.40;;;22.40;95.20;;;;;;4982664;28;20061;-59
2022/07/02 10:16:50;;;;;;;4.35;1.17;;;22.40;95.50;;;;;;4985647;28;20087;-62
2022/07/02 10:19:17;;;;;;;4.78;1.35;;;22.40;94.10;;;;;;4986535;28;20042;-62
2022/07/02 10:21:43;;;;;;;3.15;1.10;;;22.10;94.30;;;;;;4985161;28;20183;-64
2022/07/02 10:24:11;;;;;;;3.30;1.17;;;22.20;94.90;;;;;;5001596;28;20355;-63
2022/07/02 10:26:37;;;;;;;3.15;1.10;;;22.30;95.10;;;;;;4994432;28;20054;-62
2022/07/02 10:29:03;;;;;;;3.55;1.27;;;22.40;94.90;;;;;;4994379;28;20385;-62
2022/07/02 10:31:35;;;;;;;3.72;0.82;;;22.50;94.10;;;;;;4996189;28;20451;-63
2022/07/02 10:34:21;;;;;;;2.03;0.85;;;22.50;93.70;;;;;;5019896;28;20133;-61
2022/07/02 10:36:47;;;;;;;4.75;1.50;;;22.50;93.20;;;;;;5018718;28;20466;-62
2022/07/02 10:39:16;;;;;;;3.33;0.98;;;22.60;93.40;;;;;;4998107;28;20136;-62
2022/07/02 10:41:42;;;;;;;3.03;1.00;;;22.80;93.30;;;;;;5010260;28;20103;-60
2022/07/02 10:44:09;;;;;;;2.38;0.80;;;22.80;92.30;;;;;;5026386;28;20442;-62
2022/07/02 10:46:36;;;;;;;2.70;0.75;;;22.90;92.50;;;;;;5012279;28;20048;-63
2022/07/02 10:49:05;;;;;;;4.32;1.17;;;23.00;92.30;;;;;;5000478;28;20049;-62
2022/07/02 10:51:35;;;;;;;3.50;1.08;;;23.10;91.80;;;;;;5003362;28;20042;-62
2022/07/02 10:54:08;;;;;;;2.72;1.02;;;23.20;91.70;;;;;;5012964;28;20061;-62
2022/07/02 10:56:46;;;;;;;1.50;0.70;;;23.40;92.00;;;;;;4992032;28;20564;-62
2022/07/02 10:59:25;;;;;;;2.45;1.10;;;23.50;92.20;;;;;;5012532;22;20056;-57
2022/07/02 11:02:07;;;;;;;2.38;0.77;;;23.60;90.60;;;;;;4997797;28;20046;-59
2022/07/02 11:04:36;;;;;;;2.70;0.77;;;23.60;91.20;;;;;;5000443;28;20033;-55
2022/07/02 11:07:10;;;;;;;2.60;1.00;;;23.70;91.20;;;;;;5014490;22;20168;-54
2022/07/02 11:10:08;;;;;;;3.80;1.05;;;23.70;90.10;;;;;;5021340;28;20433;-56
2022/07/02 11:12:43;;;;;;;2.45;1.00;;;23.70;90.40;;;;;;5009612;28;20057;-57
2022/07/02 11:15:24;;;;;;;4.07;1.10;;;23.80;90.60;;;;;;5031759;28;20049;-55
2022/07/02 11:17:52;;;;;;;3.20;0.80;;;23.90;90.00;;;;;;5020965;28;20276;-55
2022/07/02 11:20:25;;;;;;;1.95;0.80;;;23.90;89.10;;;;;;5032833;28;20045;-54
2022/07/02 11:22:52;;;;;;;4.30;1.40;;;23.80;89.30;;;;;;5026056;28;20587;-55
2022/07/02 11:25:18;;;;;;;2.45;1.00;;;23.80;87.80;;;;;;5022573;28;20059;-51
2022/07/02 11:27:58;;;;;;;3.63;1.60;;;23.80;89.40;;;;;;5013994;28;20041;-54
2022/07/02 11:30:29;;;;;;;3.08;1.10;;;23.50;87.70;;;;;;5028318;28;20041;-54
2022/07/02 11:32:55;;;;;;;2.60;0.90;;;23.20;88.00;;;;;;5036865;28;20029;-55
2022/07/02 11:35:21;;;;;;;2.53;0.90;;;23.20;88.30;;;;;;5048447;28;20088;-55
2022/07/02 11:37:47;;;;;;;2.90;1.10;;;23.30;87.80;;;;;;5047499;28;20056;-53
2022/07/02 11:40:20;;;;;;;2.00;0.90;;;23.60;87.80;;;;;;5031438;28;20484;-57
2022/07/02 11:42:46;;;;;;;;;;;23.80;87.80;;;;;;5037019;28;20071;-54
2022/07/02 11:45:12;;;;;;;3.05;0.80;;;23.60;85.40;;;;;;5024461;28;19917;-52
2022/07/02 11:47:45;;;;;;;2.33;1.00;;;23.70;87.80;;;;;;5053777;28;20511;-53
2022/07/02 11:50:12;;;;;;;1.13;0.82;;;24.00;87.70;;;;;;5038900;28;20191;-54
2022/07/02 11:52:38;;;;;;;3.33;0.82;;;24.20;88.10;;;;;;5029145;28;20033;-57
2022/07/02 11:55:05;;;;;;;3.88;1.13;;;24.40;86.30;;;;;;5027828;28;20189;-57
2022/07/02 11:57:34;;;;;;;2.13;0.85;;;24.50;85.50;;;;;;5036653;28;20246;-52
2022/07/02 11:59:59;;;;;;;3.50;0.80;;;24.60;85.20;;;;;;5036739;28;20037;-55
2022/07/02 12:02:36;;;;;;;1.58;0.80;;;24.70;83.70;;;;;;5041956;28;20365;-54
2022/07/02 12:05:13;;;;;;;3.17;1.10;;;24.70;81.50;;;;;;5040726;28;20388;-57
2022/07/02 12:07:43;;;;;;;1.63;0.70;;;24.50;80.30;;;;;;5032023;28;20045;-51
2022/07/02 12:10:10;;;;;;;3.28;1.00;;;24.20;81.80;;;;;;5024670;28;20041;-52
2022/07/02 12:12:36;;;;;;;1.73;1.00;;;24.10;82.60;;;;;;5033893;28;20480;-52
2022/07/02 12:15:05;;;;;;;3.22;0.82;;;24.20;83.00;;;;;;5017986;28;20045;-52
2022/07/02 12:17:31;;;;;;;3.20;0.98;;;24.50;83.00;;;;;;5017451;28;20048;-59
2022/07/02 12:19:57;;;;;;;2.70;1.10;;;24.50;81.30;;;;;;5037919;28;20033;-51
2022/07/02 12:22:28;;;;;;;2.50;0.90;;;24.60;80.00;;;;;;5032769;28;20408;-53
2022/07/02 12:24:54;;;;;;;3.72;1.20;;;24.60;79.30;;;;;;5028375;28;20047;-55
2022/07/02 12:27:23;;;;;;;4.15;0.90;;;24.50;77.80;;;;;;5044434;28;20044;-54
2022/07/02 12:29:56;;;;;;;1.95;0.82;;;24.30;79.20;;;;;;5033662;28;20443;-57
2022/07/02 12:32:28;;;;;;;4.10;0.93;;;24.40;78.40;;;;;;5004655;28;20055;-55
2022/07/02 12:34:59;;;;;;;3.35;0.70;;;24.50;78.40;;;;;;5032419;28;20037;-54
2022/07/02 12:37:27;;;;;;;2.55;0.82;;;24.90;80.20;;;;;;5036817;28;20041;-55
2022/07/02 12:40:06;;;;;;;3.38;0.80;;;24.80;76.70;;;;;;5033096;28;20028;-58
2022/07/02 12:42:44;;;;;;;1.70;0.60;;;24.80;77.50;;;;;;5040539;28;20477;-55
2022/07/02 12:45:10;;;;;;;2.03;0.70;;;25.00;77.20;;;;;;5037546;28;20041;-54
2022/07/02 12:47:40;;;;;;;3.35;0.95;;;25.30;76.90;;;;;;5042017;28;20044;-54
2022/07/02 12:50:10;;;;;;;2.35;0.98;;;25.50;75.70;;;;;;5034555;28;20048;-58
2022/07/02 12:52:56;;;;;;;1.92;0.90;;;25.50;74.20;;;;;;5029632;28;20344;-54